Time;durP1;ratioP1;P1;durP2;ratioP2;P2;SDS_P1;SDS_P2;PMS_P1;PMS_P2;Temp;Humidity;BMP_temperature;BMP_pressure;BME280_temperature;BME280_humidity;BME280_pressure;Samples;Min_cycle;Max_cycle;Signal;HPM_P1;HPM_P2
2020/12/03 00:00:36;;;;;;;76.95;29.98;;;;;;;;;;5092317;28;20052;-79
2020/12/03 00:03:19;;;;;;;75.00;28.33;;;;;;;;;;5093101;28;20059;-79
2020/12/03 00:05:48;;;;;;;73.38;29.40;;;;;;;;;;5088364;28;20052;-78
2020/12/03 00:08:15;;;;;;;72.90;28.92;;;;;;;;;;5074542;28;20044;-80
2020/12/03 00:10:41;;;;;;;72.32;28.83;;;;;;;;;;5092791;28;20503;-80
2020/12/03 00:13:10;;;;;;;71.85;29.38;;;;;;;;;;5076946;28;20044;-78
2020/12/03 00:15:36;;;;;;;73.55;28.00;;;;;;;;;;5059177;28;20044;-79
2020/12/03 00:18:25;;;;;;;73.50;29.25;;;;;;;;;;5080169;28;20052;-80
2020/12/03 00:21:32;;;;;;;72.95;27.98;;;;;;;;;;5097853;28;20107;-80
2020/12/03 00:23:58;;;;;;;69.90;28.10;;;;;;;;;;5105279;28;20115;-79
2020/12/03 00:26:25;;;;;;;75.85;29.15;;;;;;;;;;5071620;28;20035;-79
2020/12/03 00:28:51;;;;;;;76.53;29.92;;;;;;;;;;5088462;28;20295;-80
2020/12/03 00:31:17;;;;;;;69.38;29.13;;;;;;;;;;5068765;28;20046;-80
2020/12/03 00:33:44;;;;;;;78.72;28.35;;;;;;;;;;5081765;28;20050;-79
2020/12/03 00:36:10;;;;;;;71.53;28.85;;;;;;;;;;5079687;28;20139;-79
2020/12/03 00:38:36;;;;;;;72.07;29.48;;;;;;;;;;5099397;28;20032;-80
2020/12/03 00:41:03;;;;;;;72.70;28.42;;;;;;;;;;5064125;28;20040;-79
2020/12/03 00:43:30;;;;;;;72.47;27.45;;;;;;;;;;5104106;28;20073;-80
2020/12/03 00:46:29;;;;;;;77.03;28.77;;;;;;;;;;5093968;28;20127;-80
2020/12/03 00:48:59;;;;;;;72.65;29.63;;;;;;;;;;5089316;28;20059;-79
2020/12/03 00:51:25;;;;;;;73.10;28.90;;;;;;;;;;5104184;28;20056;-80
2020/12/03 00:53:51;;;;;;;70.47;28.23;;;;;;;;;;5091349;28;20042;-79
2020/12/03 00:56:34;;;;;;;71.28;29.13;;;;;;;;;;5112881;28;20056;-80
2020/12/03 00:59:00;;;;;;;66.78;27.65;;;;;;;;;;5086337;28;20052;-79
2020/12/03 01:01:26;;;;;;;80.50;29.38;;;;;;;;;;5078205;28;20059;-80
2020/12/03 01:04:17;;;;;;;78.28;29.88;;;;;;;;;;5107196;28;20044;-80
2020/12/03 01:06:59;;;;;;;73.93;29.75;;;;;;;;;;5077859;28;20062;-79
2020/12/03 01:09:46;;;;;;;74.32;28.83;;;;;;;;;;5094008;28;20044;-79
2020/12/03 01:12:34;;;;;;;71.20;28.90;;;;;;;;;;5100812;28;20123;-79
2020/12/03 01:15:02;;;;;;;73.55;29.33;;;;;;;;;;5101097;28;20051;-80
2020/12/03 01:17:28;;;;;;;68.80;28.30;;;;;;;;;;5093789;28;20252;-81
2020/12/03 01:19:54;;;;;;;74.32;29.83;;;;;;;;;;5082728;28;20048;-81
2020/12/03 01:22:21;;;;;;;70.05;29.10;;;;;;;;;;5104016;28;20048;-79
2020/12/03 01:25:00;;;;;;;74.28;28.92;;;;;;;;;;5099341;28;20048;-80
2020/12/03 01:27:31;;;;;;;74.32;28.65;;;;;;;;;;5102346;28;20048;-81
2020/12/03 01:29:57;;;;;;;72.72;28.58;;;;;;;;;;5066819;28;20048;-80
2020/12/03 01:32:40;;;;;;;69.28;27.83;;;;;;;;;;5080731;28;20028;-80
2020/12/03 01:35:08;;;;;;;71.80;29.77;;;;;;;;;;5088043;28;20066;-79
2020/12/03 01:37:36;;;;;;;74.90;29.17;;;;;;;;;;5100235;28;20054;-78
2020/12/03 01:40:06;;;;;;;72.43;28.55;;;;;;;;;;5076860;28;20046;-80
2020/12/03 01:42:38;;;;;;;74.35;29.77;;;;;;;;;;5062218;28;20052;-80
2020/12/03 01:45:24;;;;;;;75.60;29.17;;;;;;;;;;5076478;28;20487;-80
2020/12/03 01:47:53;;;;;;;75.65;29.58;;;;;;;;;;5107323;22;20060;-80
2020/12/03 01:50:19;;;;;;;70.72;29.92;;;;;;;;;;5054489;28;20040;-79
2020/12/03 01:52:45;;;;;;;72.72;30.80;;;;;;;;;;5054840;28;20071;-79
2020/12/03 01:55:11;;;;;;;81.85;31.27;;;;;;;;;;5036891;28;20048;-80
2020/12/03 01:57:55;;;;;;;79.10;31.38;;;;;;;;;;5057357;28;20056;-80
2020/12/03 02:00:21;;;;;;;72.97;30.23;;;;;;;;;;5042056;28;20407;-81
2020/12/03 02:02:49;;;;;;;77.25;30.60;;;;;;;;;;5074589;22;20487;-80
2020/12/03 02:05:19;;;;;;;69.07;28.38;;;;;;;;;;5062388;28;20045;-82
2020/12/03 02:07:45;;;;;;;68.15;29.00;;;;;;;;;;5060667;28;20140;-81
2020/12/03 02:10:14;;;;;;;70.40;28.88;;;;;;;;;;5062108;28;20060;-79
2020/12/03 02:12:40;;;;;;;79.00;31.27;;;;;;;;;;5054862;28;20067;-79
2020/12/03 02:15:07;;;;;;;82.68;31.52;;;;;;;;;;5055781;28;20131;-80
2020/12/03 02:17:33;;;;;;;79.50;29.50;;;;;;;;;;5054470;28;20041;-80
2020/12/03 02:20:04;;;;;;;80.05;30.48;;;;;;;;;;5053044;28;20057;-79
2020/12/03 02:22:30;;;;;;;77.50;31.08;;;;;;;;;;5049808;28;20056;-80
2020/12/03 02:24:56;;;;;;;75.20;29.67;;;;;;;;;;5056272;28;20072;-80
2020/12/03 02:27:23;;;;;;;76.03;30.38;;;;;;;;;;5060422;28;20037;-80
2020/12/03 02:29:50;;;;;;;78.60;31.00;;;;;;;;;;5062410;28;20143;-80
2020/12/03 02:32:17;;;;;;;71.90;29.48;;;;;;;;;;5056387;28;20044;-79
2020/12/03 02:34:45;;;;;;;74.50;30.50;;;;;;;;;;5051741;28;20098;-80
2020/12/03 02:37:11;;;;;;;73.90;30.08;;;;;;;;;;5051697;28;20517;-79
2020/12/03 02:39:37;;;;;;;75.55;30.45;;;;;;;;;;5034913;28;20041;-79
2020/12/03 02:42:09;;;;;;;78.53;31.58;;;;;;;;;;5055301;28;20102;-80
2020/12/03 02:44:40;;;;;;;69.63;29.23;;;;;;;;;;5058376;28;20492;-80
2020/12/03 02:47:06;;;;;;;77.65;31.98;;;;;;;;;;5055191;28;20063;-80
2020/12/03 02:49:33;;;;;;;76.97;30.30;;;;;;;;;;5055125;28;20053;-80
2020/12/03 02:51:59;;;;;;;70.57;29.83;;;;;;;;;;5026836;28;20105;-81
2020/12/03 02:54:26;;;;;;;76.18;30.65;;;;;;;;;;5044850;28;20048;-81
2020/12/03 02:56:52;;;;;;;74.75;29.92;;;;;;;;;;5042427;28;20537;-82
2020/12/03 02:59:18;;;;;;;75.90;30.55;;;;;;;;;;5043681;28;20045;-80
2020/12/03 03:01:44;;;;;;;73.22;29.98;;;;;;;;;;5040008;28;20067;-81
2020/12/03 03:04:11;;;;;;;70.57;29.45;;;;;;;;;;5059774;28;20051;-81
2020/12/03 03:06:37;;;;;;;79.63;30.33;;;;;;;;;;5022125;28;20055;-81
2020/12/03 03:09:04;;;;;;;74.70;29.88;;;;;;;;;;5039892;28;20044;-79
2020/12/03 03:11:32;;;;;;;75.70;30.23;;;;;;;;;;5056772;28;20045;-78
2020/12/03 03:14:00;;;;;;;76.53;29.92;;;;;;;;;;5038643;28;20075;-81
2020/12/03 03:16:29;;;;;;;75.15;29.83;;;;;;;;;;5039149;28;20389;-81
2020/12/03 03:18:55;;;;;;;75.68;28.23;;;;;;;;;;5034797;28;20045;-82
2020/12/03 03:21:21;;;;;;;66.60;28.45;;;;;;;;;;5033479;28;20067;-78
2020/12/03 03:23:47;;;;;;;72.78;28.48;;;;;;;;;;5049682;28;20037;-79
2020/12/03 03:26:14;;;;;;;64.43;27.80;;;;;;;;;;5053146;28;20044;-80
2020/12/03 03:28:40;;;;;;;72.03;28.35;;;;;;;;;;5035409;28;20094;-79
2020/12/03 03:31:06;;;;;;;77.43;29.77;;;;;;;;;;5051688;28;20045;-80
2020/12/03 03:33:33;;;;;;;70.38;28.30;;;;;;;;;;5032516;28;20114;-79
2020/12/03 03:35:59;;;;;;;74.82;30.00;;;;;;;;;;5036988;28;20556;-79
2020/12/03 03:38:25;;;;;;;75.00;28.98;;;;;;;;;;5056380;28;20037;-81
2020/12/03 03:40:52;;;;;;;70.57;28.85;;;;;;;;;;5056241;28;20576;-80
2020/12/03 03:43:18;;;;;;;77.53;29.63;;;;;;;;;;5053322;28;20069;-82
2020/12/03 03:45:45;;;;;;;68.80;28.25;;;;;;;;;;5058040;28;20203;-79
2020/12/03 03:48:12;;;;;;;68.78;27.25;;;;;;;;;;5042740;28;20041;-81
2020/12/03 03:50:38;;;;;;;76.07;30.05;;;;;;;;;;5059195;28;20048;-80
2020/12/03 03:53:04;;;;;;;73.68;28.63;;;;;;;;;;5039809;28;20051;-80
2020/12/03 03:55:30;;;;;;;71.65;27.58;;;;;;;;;;5057912;28;20053;-79
2020/12/03 03:57:57;;;;;;;70.38;28.92;;;;;;;;;;5024470;28;20456;-82
2020/12/03 04:00:23;;;;;;;86.50;30.23;;;;;;;;;;5056039;28;20128;-79
2020/12/03 04:02:50;;;;;;;72.88;28.95;;;;;;;;;;5036184;28;20045;-79
2020/12/03 04:05:17;;;;;;;71.18;27.48;;;;;;;;;;5022521;28;20048;-80
2020/12/03 04:07:44;;;;;;;77.25;29.58;;;;;;;;;;5054950;28;20052;-80
2020/12/03 04:10:11;;;;;;;78.80;28.67;;;;;;;;;;5053513;28;20073;-81
2020/12/03 04:12:38;;;;;;;76.25;28.55;;;;;;;;;;5052538;28;20048;-79
2020/12/03 04:15:05;;;;;;;73.28;29.00;;;;;;;;;;5053881;28;20041;-79
2020/12/03 04:17:36;;;;;;;68.95;28.15;;;;;;;;;;5054681;28;20037;-80
2020/12/03 04:20:04;;;;;;;72.00;28.17;;;;;;;;;;5055553;28;20045;-79
2020/12/03 04:22:30;;;;;;;73.43;27.05;;;;;;;;;;5053750;28;20045;-79
2020/12/03 04:24:57;;;;;;;70.65;28.45;;;;;;;;;;5039359;28;20040;-80
2020/12/03 04:27:23;;;;;;;74.68;28.48;;;;;;;;;;5059005;28;20065;-80
2020/12/03 04:29:50;;;;;;;75.82;29.08;;;;;;;;;;5060927;28;20049;-82
2020/12/03 04:32:16;;;;;;;76.20;30.60;;;;;;;;;;5061108;28;20045;-83
2020/12/03 04:34:43;;;;;;;69.90;29.23;;;;;;;;;;5041514;28;20080;-82
2020/12/03 04:37:09;;;;;;;71.13;27.63;;;;;;;;;;5024461;28;20055;-81
2020/12/03 04:39:35;;;;;;;74.70;29.55;;;;;;;;;;5057983;28;20041;-80
2020/12/03 04:42:02;;;;;;;76.25;30.27;;;;;;;;;;5055687;28;20051;-81
2020/12/03 04:44:29;;;;;;;77.00;29.55;;;;;;;;;;5041653;28;20562;-80
2020/12/03 04:47:05;;;;;;;76.43;29.60;;;;;;;;;;5058955;28;20045;-80
2020/12/03 04:49:37;;;;;;;79.20;30.23;;;;;;;;;;5061049;28;20071;-82
2020/12/03 04:52:03;;;;;;;71.85;28.95;;;;;;;;;;5039529;28;20555;-81
2020/12/03 04:54:47;;;;;;;72.90;27.92;;;;;;;;;;5054494;28;20057;-81
2020/12/03 04:57:30;;;;;;;74.18;28.73;;;;;;;;;;5045633;28;20045;-80
2020/12/03 05:00:13;;;;;;;79.90;28.55;;;;;;;;;;5027619;28;20056;-82
2020/12/03 05:02:46;;;;;;;81.18;31.67;;;;;;;;;;5039728;28;20195;-81
2020/12/03 05:05:15;;;;;;;74.13;28.60;;;;;;;;;;5041801;28;20069;-82
2020/12/03 05:07:47;;;;;;;75.05;30.55;;;;;;;;;;5041931;28;20041;-81
2020/12/03 05:10:19;;;;;;;75.15;29.58;;;;;;;;;;5030637;28;20033;-81
2020/12/03 05:12:46;;;;;;;82.45;30.88;;;;;;;;;;5052611;28;20437;-79
2020/12/03 05:15:28;;;;;;;80.47;31.42;;;;;;;;;;5045718;28;20379;-80
2020/12/03 05:18:18;;;;;;;79.55;31.38;;;;;;;;;;5029837;28;20136;-81
2020/12/03 05:20:51;;;;;;;77.90;29.05;;;;;;;;;;5032365;28;20125;-81
2020/12/03 05:23:26;;;;;;;81.22;29.27;;;;;;;;;;5034226;28;20029;-81
2020/12/03 05:25:54;;;;;;;77.40;30.52;;;;;;;;;;5061971;28;20059;-82
2020/12/03 05:28:20;;;;;;;81.03;30.08;;;;;;;;;;5053373;28;20048;-80
2020/12/03 05:30:47;;;;;;;76.97;30.20;;;;;;;;;;5054149;28;20030;-80
2020/12/03 05:33:13;;;;;;;75.30;29.35;;;;;;;;;;5051834;28;20045;-80
2020/12/03 05:35:41;;;;;;;77.20;30.00;;;;;;;;;;5054123;28;20565;-79
2020/12/03 05:38:20;;;;;;;80.35;30.88;;;;;;;;;;5057493;28;20048;-80
2020/12/03 05:40:53;;;;;;;74.85;30.00;;;;;;;;;;5057064;28;20045;-81
2020/12/03 05:43:19;;;;;;;75.80;29.40;;;;;;;;;;5058160;28;20052;-78
2020/12/03 05:45:46;;;;;;;73.80;30.38;;;;;;;;;;5058892;28;20033;-80
2020/12/03 05:48:14;;;;;;;87.78;31.35;;;;;;;;;;5060834;28;20055;-81
2020/12/03 05:50:44;;;;;;;76.90;29.33;;;;;;;;;;5059648;28;20128;-81
2020/12/03 05:53:20;;;;;;;70.75;30.13;;;;;;;;;;5051538;28;20044;-82
2020/12/03 05:55:48;;;;;;;71.68;29.33;;;;;;;;;;5044320;28;20032;-82
2020/12/03 05:58:14;;;;;;;82.90;31.55;;;;;;;;;;5036697;28;20041;-81
2020/12/03 06:00:40;;;;;;;76.55;29.60;;;;;;;;;;5022998;28;20050;-81
2020/12/03 06:03:22;;;;;;;75.70;30.35;;;;;;;;;;5041845;28;20060;-81
2020/12/03 06:05:54;;;;;;;80.65;28.52;;;;;;;;;;5035730;28;20107;-80
2020/12/03 06:08:39;;;;;;;68.05;28.15;;;;;;;;;;5054464;28;20140;-81
2020/12/03 06:11:24;;;;;;;65.13;26.52;;;;;;;;;;5043962;28;20045;-80
2020/12/03 06:13:50;;;;;;;72.07;28.73;;;;;;;;;;5055480;28;20049;-81
2020/12/03 06:16:40;;;;;;;63.75;27.67;;;;;;;;;;5057196;28;20287;-83
2020/12/03 06:19:26;;;;;;;79.63;28.83;;;;;;;;;;5044166;28;20292;-81
2020/12/03 06:21:53;;;;;;;68.20;27.17;;;;;;;;;;5050964;28;20421;-80
2020/12/03 06:24:46;;;;;;;70.22;28.67;;;;;;;;;;5032417;28;20033;-81
2020/12/03 06:27:27;;;;;;;65.40;28.60;;;;;;;;;;5031564;28;20049;-82
2020/12/03 06:29:57;;;;;;;67.75;28.25;;;;;;;;;;5053440;28;20049;-81
2020/12/03 06:32:47;;;;;;;67.07;27.55;;;;;;;;;;5053276;28;20037;-81
2020/12/03 06:35:13;;;;;;;72.57;28.73;;;;;;;;;;5035316;28;20084;-80
2020/12/03 06:37:42;;;;;;;65.22;27.55;;;;;;;;;;5034612;28;20103;-81
2020/12/03 06:40:15;;;;;;;72.95;28.48;;;;;;;;;;5052947;28;20108;-80
2020/12/03 06:42:49;;;;;;;71.20;28.70;;;;;;;;;;5034176;28;20112;-80
2020/12/03 06:45:47;;;;;;;68.60;28.25;;;;;;;;;;5033550;28;20069;-80
2020/12/03 06:48:23;;;;;;;70.53;28.92;;;;;;;;;;5008155;28;20057;-81
2020/12/03 06:51:07;;;;;;;80.25;28.98;;;;;;;;;;5051263;28;20454;-81
2020/12/03 06:53:53;;;;;;;68.65;27.98;;;;;;;;;;5032270;28;20045;-81
2020/12/03 06:56:25;;;;;;;68.82;27.33;;;;;;;;;;5050994;28;20100;-80
2020/12/03 06:58:51;;;;;;;74.20;28.15;;;;;;;;;;5016369;28;20094;-80
2020/12/03 07:01:36;;;;;;;65.88;27.95;;;;;;;;;;5032893;28;20045;-80
2020/12/03 07:04:24;;;;;;;71.80;27.77;;;;;;;;;;5033718;28;20228;-80
2020/12/03 07:07:07;;;;;;;62.60;24.33;;;;;;;;;;5051169;28;20486;-81
2020/12/03 07:09:40;;;;;;;62.00;25.85;;;;;;;;;;5050633;28;20045;-80
2020/12/03 07:12:29;;;;;;;67.63;25.95;;;;;;;;;;5052467;28;20060;-81
2020/12/03 07:15:13;;;;;;;65.95;26.38;;;;;;;;;;5052373;28;20396;-79
2020/12/03 07:17:51;;;;;;;62.33;25.48;;;;;;;;;;5033297;28;20037;-79
2020/12/03 07:20:33;;;;;;;63.60;25.42;;;;;;;;;;5052371;28;20048;-80
2020/12/03 07:23:03;;;;;;;64.72;25.52;;;;;;;;;;5033045;28;20060;-79
2020/12/03 07:25:30;;;;;;;60.53;24.88;;;;;;;;;;5032203;28;20087;-80
2020/12/03 07:27:59;;;;;;;65.05;26.30;;;;;;;;;;5051765;28;20048;-80
2020/12/03 07:30:33;;;;;;;62.13;26.10;;;;;;;;;;5031702;28;20048;-81
2020/12/03 07:33:05;;;;;;;62.97;25.67;;;;;;;;;;5012745;28;20379;-80
2020/12/03 07:35:31;;;;;;;71.20;25.95;;;;;;;;;;5049405;28;20120;-79
2020/12/03 07:38:16;;;;;;;64.43;25.38;;;;;;;;;;5051642;28;20069;-79
2020/12/03 07:40:42;;;;;;;61.38;25.27;;;;;;;;;;5052622;28;20088;-80
2020/12/03 07:43:35;;;;;;;62.33;25.52;;;;;;;;;;5044539;28;20042;-80
2020/12/03 07:46:01;;;;;;;62.72;24.50;;;;;;;;;;5010308;28;20481;-80
2020/12/03 07:48:30;;;;;;;65.85;25.63;;;;;;;;;;5052263;22;20052;-78
2020/12/03 07:51:03;;;;;;;61.53;25.55;;;;;;;;;;5033381;28;20041;-79
2020/12/03 07:53:32;;;;;;;62.47;26.25;;;;;;;;;;5049423;28;20254;-79
2020/12/03 07:55:58;;;;;;;62.85;25.35;;;;;;;;;;5048820;28;20053;-78
2020/12/03 07:58:34;;;;;;;61.63;25.10;;;;;;;;;;5050633;28;20048;-79
2020/12/03 08:01:05;;;;;;;65.55;26.02;;;;;;;;;;5039516;28;20417;-78
2020/12/03 08:03:37;;;;;;;59.65;25.75;;;;;;;;;;5030485;28;20678;-79
2020/12/03 08:06:09;;;;;;;67.55;27.48;;;;;;;;;;5029728;28;20511;-79
2020/12/03 08:08:38;;;;;;;61.55;25.40;;;;;;;;;;5029630;28;20107;-78
2020/12/03 08:11:25;;;;;;;68.88;26.92;;;;;;;;;;5011949;28;20073;-79
2020/12/03 08:13:56;;;;;;;55.67;24.17;;;;;;;;;;5028785;28;20088;-78
2020/12/03 08:16:32;;;;;;;63.95;26.17;;;;;;;;;;5028862;28;20045;-79
2020/12/03 08:19:18;;;;;;;69.57;26.23;;;;;;;;;;5030171;28;20037;-79
2020/12/03 08:21:52;;;;;;;59.80;25.63;;;;;;;;;;5029058;28;20298;-79
2020/12/03 08:24:26;;;;;;;64.10;26.83;;;;;;;;;;5029898;28;20053;-79
2020/12/03 08:26:58;;;;;;;65.47;25.70;;;;;;;;;;5029225;28;20084;-79
2020/12/03 08:29:42;;;;;;;64.20;26.20;;;;;;;;;;5045053;28;20050;-81
2020/12/03 08:32:18;;;;;;;65.95;26.13;;;;;;;;;;5041415;28;20088;-80
2020/12/03 08:35:00;;;;;;;64.38;27.08;;;;;;;;;;5019082;28;20152;-80
2020/12/03 08:37:32;;;;;;;62.22;25.83;;;;;;;;;;5035984;28;20117;-80
2020/12/03 08:40:09;;;;;;;63.47;25.98;;;;;;;;;;5018882;28;20053;-79
2020/12/03 08:42:36;;;;;;;65.55;26.08;;;;;;;;;;5017373;28;20092;-79
2020/12/03 08:45:05;;;;;;;63.78;25.90;;;;;;;;;;5033784;28;20096;-78
2020/12/03 08:47:54;;;;;;;72.68;26.67;;;;;;;;;;5033901;28;20424;-80
2020/12/03 08:50:23;;;;;;;59.67;24.70;;;;;;;;;;5034133;28;20045;-79
2020/12/03 08:52:53;;;;;;;63.72;25.02;;;;;;;;;;5022269;28;20412;-79
2020/12/03 08:55:22;;;;;;;59.00;23.88;;;;;;;;;;5018402;28;20124;-80
2020/12/03 08:57:52;;;;;;;62.70;25.88;;;;;;;;;;5003088;28;20065;-78
2020/12/03 09:00:26;;;;;;;60.42;24.45;;;;;;;;;;5019438;28;20556;-79
2020/12/03 09:02:58;;;;;;;64.28;24.80;;;;;;;;;;5036301;28;20045;-79
2020/12/03 09:05:27;;;;;;;60.15;24.55;;;;;;;;;;5026184;28;20058;-80
2020/12/03 09:07:57;;;;;;;61.10;24.73;;;;;;;;;;5045831;28;20049;-78
2020/12/03 09:10:23;;;;;;;62.47;24.70;;;;;;;;;;5025178;28;20049;-80
2020/12/03 09:12:51;;;;;;;59.50;24.27;;;;;;;;;;5057205;28;20040;-79
2020/12/03 09:15:18;;;;;;;59.65;24.33;;;;;;;;;;5053126;28;20385;-79
2020/12/03 09:17:58;;;;;;;58.63;24.33;;;;;;;;;;5054088;28;20092;-80
2020/12/03 09:20:24;;;;;;;72.10;25.73;;;;;;;;;;5042208;28;20087;-78
2020/12/03 09:22:50;;;;;;;65.03;26.38;;;;;;;;;;5044780;28;20047;-79
2020/12/03 09:25:17;;;;;;;63.40;24.60;;;;;;;;;;5033454;28;20389;-79
2020/12/03 09:27:48;;;;;;;63.20;25.85;;;;;;;;;;5052868;28;20055;-80
2020/12/03 09:30:18;;;;;;;61.50;24.75;;;;;;;;;;5020970;28;20049;-79
2020/12/03 09:33:03;;;;;;;60.90;24.55;;;;;;;;;;5020201;28;20400;-80
2020/12/03 09:35:34;;;;;;;63.90;26.08;;;;;;;;;;5054496;28;20474;-79
2020/12/03 09:38:06;;;;;;;64.32;25.65;;;;;;;;;;5045497;28;20272;-79
2020/12/03 09:40:33;;;;;;;63.17;25.08;;;;;;;;;;5034267;28;20065;-79
2020/12/03 09:43:01;;;;;;;61.42;24.95;;;;;;;;;;5053402;28;20052;-80
2020/12/03 09:45:33;;;;;;;62.67;25.17;;;;;;;;;;5017086;28;20215;-81
2020/12/03 09:48:01;;;;;;;56.28;22.90;;;;;;;;;;5052042;28;20289;-78
2020/12/03 09:50:28;;;;;;;58.58;23.52;;;;;;;;;;5039765;28;20033;-80
2020/12/03 09:52:55;;;;;;;60.35;24.63;;;;;;;;;;5055215;28;20052;-78
2020/12/03 09:55:21;;;;;;;59.30;23.75;;;;;;;;;;5054024;28;20124;-79
2020/12/03 09:57:54;;;;;;;61.53;24.25;;;;;;;;;;5037799;28;20044;-80
2020/12/03 10:00:41;;;;;;;64.60;23.58;;;;;;;;;;5055530;28;20067;-79
2020/12/03 10:03:13;;;;;;;67.13;25.10;;;;;;;;;;5014560;28;20072;-78
2020/12/03 10:06:01;;;;;;;64.57;24.58;;;;;;;;;;5023500;28;20041;-75
2020/12/03 10:08:33;;;;;;;60.72;24.27;;;;;;;;;;5050194;28;20056;-77
2020/12/03 10:11:17;;;;;;;64.00;25.92;;;;;;;;;;5016737;28;20283;-78
2020/12/03 10:13:44;;;;;;;63.85;24.98;;;;;;;;;;5051112;28;20037;-77
2020/12/03 10:16:20;;;;;;;63.03;24.67;;;;;;;;;;5050762;28;20212;-78
2020/12/03 10:18:48;;;;;;;63.30;25.38;;;;;;;;;;5046202;28;20033;-78
2020/12/03 10:21:20;;;;;;;69.78;26.92;;;;;;;;;;5032507;28;20041;-79
2020/12/03 10:23:52;;;;;;;62.20;24.38;;;;;;;;;;5017055;28;20045;-80
2020/12/03 10:26:32;;;;;;;64.43;25.00;;;;;;;;;;5033644;28;20044;-78
2020/12/03 10:29:24;;;;;;;57.88;22.17;;;;;;;;;;5032782;28;20095;-77
2020/12/03 10:31:51;;;;;;;62.28;25.02;;;;;;;;;;5026667;28;20061;-78
2020/12/03 10:34:18;;;;;;;61.45;25.20;;;;;;;;;;5014210;28;20280;-78
2020/12/03 10:36:49;;;;;;;60.13;24.05;;;;;;;;;;5012316;28;20132;-79
2020/12/03 10:39:16;;;;;;;60.30;23.75;;;;;;;;;;4996857;28;20547;-79
2020/12/03 10:41:45;;;;;;;60.50;22.58;;;;;;;;;;5030939;28;20047;-78
2020/12/03 10:44:15;;;;;;;55.67;22.10;;;;;;;;;;5013103;28;20033;-79
2020/12/03 10:46:46;;;;;;;57.33;22.90;;;;;;;;;;4997105;28;20136;-78
2020/12/03 10:49:15;;;;;;;53.08;21.25;;;;;;;;;;5014642;28;20057;-78
2020/12/03 10:51:45;;;;;;;49.00;20.75;;;;;;;;;;4997777;28;20064;-78
2020/12/03 10:54:19;;;;;;;40.50;16.98;;;;;;;;;;5030712;28;20041;-79
2020/12/03 10:56:49;;;;;;;38.17;15.95;;;;;;;;;;4996072;28;20045;-79
2020/12/03 10:59:22;;;;;;;43.58;15.25;;;;;;;;;;5013545;28;20057;-79
2020/12/03 11:01:52;;;;;;;33.25;14.65;;;;;;;;;;5030926;28;20173;-78
2020/12/03 11:04:19;;;;;;;36.78;15.20;;;;;;;;;;5015159;28;20680;-78
2020/12/03 11:06:46;;;;;;;37.03;14.80;;;;;;;;;;5033640;28;20049;-79
2020/12/03 11:09:19;;;;;;;39.25;14.63;;;;;;;;;;5018086;28;20172;-79
2020/12/03 11:11:49;;;;;;;31.80;14.18;;;;;;;;;;5015573;28;20425;-78
2020/12/03 11:14:16;;;;;;;29.52;12.90;;;;;;;;;;5030484;28;20473;-79
2020/12/03 11:16:46;;;;;;;28.00;11.93;;;;;;;;;;5035294;28;20036;-79
2020/12/03 11:19:35;;;;;;;28.58;11.40;;;;;;;;;;5029634;28;20408;-78
2020/12/03 11:22:11;;;;;;;29.67;11.95;;;;;;;;;;5011062;28;20041;-78
2020/12/03 11:24:43;;;;;;;34.67;12.63;;;;;;;;;;5027562;28;20045;-79
2020/12/03 11:27:10;;;;;;;25.85;11.88;;;;;;;;;;5028692;28;20065;-79
2020/12/03 11:29:36;;;;;;;29.10;12.73;;;;;;;;;;5012713;28;20037;-79
2020/12/03 11:32:03;;;;;;;29.60;13.82;;;;;;;;;;5011373;28;20041;-78
2020/12/03 11:34:36;;;;;;;31.25;12.80;;;;;;;;;;5047396;28;20044;-78
2020/12/03 11:37:03;;;;;;;24.58;11.57;;;;;;;;;;5048223;28;20048;-78
2020/12/03 11:39:32;;;;;;;24.80;10.93;;;;;;;;;;5047910;28;20045;-79
2020/12/03 11:43:03;;;;;;;24.48;10.63;;;;;;;;;;5031207;28;20079;-79
2020/12/03 11:50:14;;;;;;;25.48;10.48;;;;;;;;;;5032587;28;20052;-78
2020/12/03 11:52:40;;;;;;;24.60;9.98;;;;;;;;;;5031778;28;20033;-79
2020/12/03 11:55:17;;;;;;;25.27;10.45;;;;;;;;;;5038172;28;20125;-79
2020/12/03 11:57:43;;;;;;;23.52;10.45;;;;;;;;;;5012561;28;20072;-78
2020/12/03 12:00:16;;;;;;;27.58;9.73;;;;;;;;;;5023210;28;20045;-78
2020/12/03 12:02:45;;;;;;;22.73;9.75;;;;;;;;;;5048981;28;20350;-78
2020/12/03 12:05:26;;;;;;;25.20;10.38;;;;;;;;;;5032726;28;20048;-78
2020/12/03 12:08:06;;;;;;;22.77;10.45;;;;;;;;;;5035677;28;20393;-78
2020/12/03 12:10:38;;;;;;;23.63;10.05;;;;;;;;;;5035405;28;20102;-79
2020/12/03 12:13:05;;;;;;;24.02;10.50;;;;;;;;;;5036075;28;20068;-79
2020/12/03 12:15:32;;;;;;;23.48;10.05;;;;;;;;;;5034674;28;20443;-79
2020/12/03 12:17:57;;;;;;;23.33;10.13;;;;;;;;;;5018379;28;20037;-77
2020/12/03 12:20:24;;;;;;;24.90;10.32;;;;;;;;;;5020621;28;20063;-76
2020/12/03 12:22:50;;;;;;;24.13;10.82;;;;;;;;;;5037341;28;20076;-79
2020/12/03 12:25:17;;;;;;;21.45;9.20;;;;;;;;;;5038515;28;20045;-79
2020/12/03 12:27:44;;;;;;;23.77;10.15;;;;;;;;;;5038825;28;20468;-79
2020/12/03 12:30:10;;;;;;;25.75;9.88;;;;;;;;;;5054549;28;20044;-78
2020/12/03 12:32:36;;;;;;;24.27;10.02;;;;;;;;;;5053732;28;20096;-78
2020/12/03 12:35:03;;;;;;;23.13;10.68;;;;;;;;;;5036237;28;20124;-78
2020/12/03 12:37:29;;;;;;;24.75;10.38;;;;;;;;;;5018900;28;20139;-78
2020/12/03 12:39:55;;;;;;;25.55;10.93;;;;;;;;;;5019134;28;20492;-79
2020/12/03 12:42:26;;;;;;;23.02;9.93;;;;;;;;;;5035149;28;20045;-79
2020/12/03 12:44:55;;;;;;;22.50;9.90;;;;;;;;;;5035059;28;20083;-78
2020/12/03 12:47:23;;;;;;;22.83;10.05;;;;;;;;;;5033673;28;20421;-79
2020/12/03 12:49:52;;;;;;;24.60;10.77;;;;;;;;;;5053629;28;20056;-79
2020/12/03 12:52:19;;;;;;;23.00;9.38;;;;;;;;;;5052015;28;20045;-78
2020/12/03 12:54:45;;;;;;;27.67;10.60;;;;;;;;;;5033365;28;20056;-78
2020/12/03 12:57:18;;;;;;;25.63;10.68;;;;;;;;;;5034937;28;20392;-78
2020/12/03 12:59:44;;;;;;;23.00;10.60;;;;;;;;;;5036181;28;20476;-79
2020/12/03 13:02:11;;;;;;;24.45;10.48;;;;;;;;;;5054778;28;20037;-79
2020/12/03 13:04:38;;;;;;;23.70;10.00;;;;;;;;;;5019672;28;20041;-78
2020/12/03 13:07:07;;;;;;;24.75;11.57;;;;;;;;;;5036123;28;20164;-78
2020/12/03 13:09:33;;;;;;;24.42;10.68;;;;;;;;;;5035268;28;20052;-78
2020/12/03 13:12:00;;;;;;;26.98;10.93;;;;;;;;;;5053430;28;20037;-78
2020/12/03 13:14:26;;;;;;;27.58;10.43;;;;;;;;;;5033900;28;20049;-79
2020/12/03 13:16:54;;;;;;;24.25;10.27;;;;;;;;;;5033156;28;20068;-78
2020/12/03 13:19:20;;;;;;;24.13;10.63;;;;;;;;;;5034803;28;20381;-79
2020/12/03 13:21:49;;;;;;;24.45;10.75;;;;;;;;;;5018133;28;20495;-78
2020/12/03 13:24:15;;;;;;;23.27;9.43;;;;;;;;;;5017556;28;20045;-79
2020/12/03 13:26:42;;;;;;;22.13;9.60;;;;;;;;;;5033690;28;20570;-79
2020/12/03 13:29:09;;;;;;;25.05;10.45;;;;;;;;;;5052480;28;20111;-78
2020/12/03 13:31:35;;;;;;;23.60;9.98;;;;;;;;;;5033737;28;20142;-79
2020/12/03 13:34:05;;;;;;;23.23;10.07;;;;;;;;;;5020791;28;20124;-78
2020/12/03 13:36:32;;;;;;;21.25;9.68;;;;;;;;;;5030842;28;20167;-76
2020/12/03 13:38:59;;;;;;;23.30;10.18;;;;;;;;;;5013376;28;20286;-78
2020/12/03 13:41:25;;;;;;;24.77;10.25;;;;;;;;;;5014054;28;20041;-79
2020/12/03 13:43:52;;;;;;;22.45;10.52;;;;;;;;;;5015247;28;20053;-79
2020/12/03 13:46:19;;;;;;;24.77;9.75;;;;;;;;;;5030814;28;20045;-79
2020/12/03 13:48:46;;;;;;;21.15;9.52;;;;;;;;;;5034217;23;20045;-81
2020/12/03 13:51:13;;;;;;;24.45;9.80;;;;;;;;;;5094378;28;20048;-81
2020/12/03 13:53:40;;;;;;;24.80;10.00;;;;;;;;;;5074181;28;20537;-80
2020/12/03 13:56:07;;;;;;;25.48;10.80;;;;;;;;;;5073575;28;20055;-80
2020/12/03 13:58:34;;;;;;;26.40;11.05;;;;;;;;;;5093851;28;20040;-80
2020/12/03 14:01:00;;;;;;;28.45;10.43;;;;;;;;;;5110168;28;20028;-79
2020/12/03 14:03:26;;;;;;;27.02;10.55;;;;;;;;;;5114204;28;20112;-81
2020/12/03 14:05:52;;;;;;;24.63;9.98;;;;;;;;;;5097339;28;20103;-79
2020/12/03 14:08:18;;;;;;;25.33;10.55;;;;;;;;;;5081738;28;20048;-82
2020/12/03 14:10:45;;;;;;;22.35;9.95;;;;;;;;;;5092464;28;20093;-80
2020/12/03 14:13:11;;;;;;;22.40;9.98;;;;;;;;;;5057760;28;20047;-80
2020/12/03 14:15:38;;;;;;;20.98;9.43;;;;;;;;;;5040463;28;20120;-82
2020/12/03 14:18:05;;;;;;;22.92;9.88;;;;;;;;;;5039801;28;20076;-80
2020/12/03 14:20:32;;;;;;;20.05;9.73;;;;;;;;;;5073403;28;20056;-80
2020/12/03 14:22:59;;;;;;;21.65;9.88;;;;;;;;;;5038668;28;20055;-80
2020/12/03 14:25:25;;;;;;;25.65;9.77;;;;;;;;;;5055766;28;20044;-82
2020/12/03 14:27:52;;;;;;;19.83;9.00;;;;;;;;;;5056058;28;20419;-81
2020/12/03 14:30:19;;;;;;;22.02;9.95;;;;;;;;;;5073342;28;20060;-80
2020/12/03 14:32:45;;;;;;;19.83;8.73;;;;;;;;;;5059367;28;20045;-81
2020/12/03 14:35:12;;;;;;;20.10;9.05;;;;;;;;;;5081220;28;20071;-80
2020/12/03 14:37:42;;;;;;;19.35;8.27;;;;;;;;;;5062875;28;20040;-81
2020/12/03 14:40:14;;;;;;;22.17;9.27;;;;;;;;;;5061631;28;20135;-80
2020/12/03 14:42:40;;;;;;;24.10;8.85;;;;;;;;;;5062998;28;20048;-83
2020/12/03 14:45:10;;;;;;;19.52;8.70;;;;;;;;;;5062047;28;20052;-80